Time;durP1;ratioP1;P1;durP2;ratioP2;P2;SDS_P1;SDS_P2;PMS_P1;PMS_P2;Temp;Humidity;BMP_temperature;BMP_pressure;BME280_temperature;BME280_humidity;BME280_pressure;Samples;Min_cycle;Max_cycle;Signal;HPM_P1;HPM_P2
2021/04/01 00:00:43;;;;;;;106.17;51.97;;;8.30;99.90;;;;;;4996933;28;20197;-91
2021/04/01 00:03:08;;;;;;;104.37;50.90;;;8.20;99.90;;;;;;5014756;28;20180;-91
2021/04/01 00:05:34;;;;;;;105.87;49.10;;;8.20;99.90;;;;;;4980133;28;20189;-90
2021/04/01 00:08:00;;;;;;;94.43;45.77;;;8.10;99.90;;;;;;4980633;28;20288;-90
2021/04/01 00:10:43;;;;;;;92.97;48.20;;;8.10;99.90;;;;;;4996052;28;20184;-89
2021/04/01 00:13:10;;;;;;;95.53;46.03;;;8.10;99.90;;;;;;4996749;28;20296;-90
2021/04/01 00:15:40;;;;;;;95.37;45.87;;;8.10;99.90;;;;;;5013895;28;20528;-89
2021/04/01 00:18:07;;;;;;;93.23;45.17;;;8.10;99.90;;;;;;5014093;28;20220;-90
2021/04/01 00:20:33;;;;;;;99.07;45.00;;;8.10;99.90;;;;;;4997237;28;20642;-88
2021/04/01 00:22:58;;;;;;;104.13;46.57;;;8.10;99.90;;;;;;5014917;28;20189;-90
2021/04/01 00:25:24;;;;;;;101.47;45.80;;;8.10;99.90;;;;;;4996415;28;20667;-90
2021/04/01 00:27:50;;;;;;;100.47;45.70;;;8.00;99.90;;;;;;4980168;28;20209;-91
2021/04/01 00:30:16;;;;;;;94.40;47.20;;;8.00;99.90;;;;;;4996669;28;20178;-91
2021/04/01 00:32:43;;;;;;;99.47;47.00;;;8.00;99.90;;;;;;5013566;28;20177;-91
2021/04/01 00:35:09;;;;;;;97.50;48.40;;;8.00;99.90;;;;;;5013784;28;20216;-90
2021/04/01 00:37:35;;;;;;;101.63;49.27;;;8.00;99.90;;;;;;4979585;28;20304;-91
2021/04/01 00:40:01;;;;;;;94.87;47.00;;;8.00;99.90;;;;;;4996498;28;20609;-90
2021/04/01 00:42:26;;;;;;;104.03;51.10;;;7.90;99.90;;;;;;5013453;28;20653;-90
2021/04/01 00:44:58;;;;;;;100.23;49.00;;;7.90;99.90;;;;;;4996137;28;20228;-91
2021/04/01 00:47:24;;;;;;;110.70;53.97;;;8.00;99.90;;;;;;4995894;28;20185;-91
2021/04/01 00:49:50;;;;;;;116.40;54.20;;;8.00;99.90;;;;;;4996113;28;20532;-90
2021/04/01 00:52:24;;;;;;;110.90;52.47;;;7.90;99.90;;;;;;4979967;28;20182;-91
2021/04/01 00:54:49;;;;;;;108.37;51.93;;;7.90;99.90;;;;;;5013764;28;20305;-90
2021/04/01 00:57:15;;;;;;;105.67;53.90;;;7.90;99.90;;;;;;4995924;28;20300;-91
2021/04/01 00:59:41;;;;;;;115.83;55.67;;;8.00;99.90;;;;;;4979286;28;20193;-90
2021/04/01 01:02:06;;;;;;;107.17;55.13;;;7.90;99.90;;;;;;4979828;28;20182;-92
2021/04/01 01:04:32;;;;;;;110.90;55.13;;;7.90;99.90;;;;;;5013046;28;20183;-92
2021/04/01 01:06:59;;;;;;;108.97;54.23;;;7.90;99.90;;;;;;5013842;28;20213;-91
2021/04/01 01:09:25;;;;;;;111.73;53.23;;;7.90;99.90;;;;;;4995536;28;20185;-91
2021/04/01 01:11:51;;;;;;;108.80;52.83;;;7.90;99.90;;;;;;4995591;28;20244;-92
2021/04/01 01:14:17;;;;;;;114.03;56.13;;;7.90;99.90;;;;;;4995771;28;20216;-91
2021/04/01 01:16:43;;;;;;;109.97;55.67;;;7.90;99.90;;;;;;4995452;28;20200;-89
2021/04/01 01:19:11;;;;;;;100.40;52.30;;;7.80;99.90;;;;;;4995527;28;20660;-91
2021/04/01 01:21:36;;;;;;;116.60;53.40;;;7.80;99.90;;;;;;5013224;28;20176;-91
2021/04/01 01:24:03;;;;;;;107.37;52.57;;;7.80;99.90;;;;;;4995725;28;20545;-90
2021/04/01 01:26:28;;;;;;;109.47;53.93;;;7.70;99.90;;;;;;4995134;28;20189;-91
2021/04/01 01:28:55;;;;;;;106.00;55.10;;;7.70;99.90;;;;;;4979337;28;20185;-90
2021/04/01 01:31:22;;;;;;;109.70;55.27;;;7.70;99.90;;;;;;5013274;28;20180;-90
2021/04/01 01:33:48;;;;;;;113.57;54.87;;;7.70;99.90;;;;;;4995468;28;20178;-90
2021/04/01 01:36:15;;;;;;;113.63;53.07;;;7.60;99.90;;;;;;5013122;28;20231;-90
2021/04/01 01:38:41;;;;;;;103.40;50.60;;;7.60;99.90;;;;;;4995195;28;20181;-90
2021/04/01 01:41:07;;;;;;;103.43;53.03;;;7.50;99.90;;;;;;4998831;28;20192;-89
2021/04/01 01:43:34;;;;;;;112.47;54.17;;;7.50;99.90;;;;;;5016825;28;20189;-91
2021/04/01 01:46:00;;;;;;;109.43;50.93;;;7.50;99.90;;;;;;5016974;28;20169;-90
2021/04/01 01:48:26;;;;;;;109.20;53.37;;;7.50;99.90;;;;;;4983009;28;20181;-90
2021/04/01 01:50:52;;;;;;;111.73;53.37;;;7.50;99.90;;;;;;4999168;28;20181;-91
2021/04/01 01:53:18;;;;;;;101.90;53.00;;;7.50;99.90;;;;;;4999362;28;20181;-91
2021/04/01 01:55:44;;;;;;;107.03;53.10;;;7.50;99.90;;;;;;5016404;28;20186;-90
2021/04/01 01:58:10;;;;;;;110.43;54.37;;;7.40;99.90;;;;;;4982954;28;20223;-90
2021/04/01 02:00:44;;;;;;;119.33;55.33;;;7.40;99.90;;;;;;4998781;28;20239;-91
2021/04/01 02:03:11;;;;;;;112.63;55.50;;;7.40;99.90;;;;;;4999243;28;20626;-92
2021/04/01 02:05:38;;;;;;;113.23;56.50;;;7.40;99.90;;;;;;4982751;28;20188;-92
2021/04/01 02:08:06;;;;;;;104.57;52.27;;;7.40;99.90;;;;;;4999343;28;20238;-91
2021/04/01 02:10:34;;;;;;;116.07;54.80;;;7.40;99.90;;;;;;4998606;28;20186;-91
2021/04/01 02:13:01;;;;;;;104.23;52.80;;;7.40;99.90;;;;;;4999110;28;20192;-90
2021/04/01 02:15:29;;;;;;;108.97;53.73;;;7.40;99.90;;;;;;4982497;28;20181;-89
2021/04/01 02:18:14;;;;;;;105.20;53.60;;;7.40;99.90;;;;;;5016126;28;20209;-90
2021/04/01 02:20:43;;;;;;;107.30;52.23;;;7.40;99.90;;;;;;5015983;28;20184;-90
2021/04/01 02:23:14;;;;;;;99.17;53.37;;;7.40;99.90;;;;;;5016285;28;20177;-89
2021/04/01 02:25:40;;;;;;;109.50;53.30;;;7.40;99.90;;;;;;5016088;28;20214;-89
2021/04/01 02:28:07;;;;;;;109.00;54.27;;;7.40;99.90;;;;;;5015995;28;20188;-90
2021/04/01 02:30:34;;;;;;;100.23;51.23;;;7.40;99.90;;;;;;4982226;28;20192;-88
2021/04/01 02:33:00;;;;;;;105.97;51.50;;;7.40;99.90;;;;;;4982507;28;20193;-89
2021/04/01 02:35:27;;;;;;;118.73;59.33;;;7.40;99.90;;;;;;5016082;28;20634;-89
2021/04/01 02:37:52;;;;;;;170.40;85.80;;;7.40;99.90;;;;;;4997977;28;20595;-92
2021/04/01 02:40:18;;;;;;;173.23;86.77;;;7.40;99.90;;;;;;4998606;28;20189;-91
2021/04/01 02:42:45;;;;;;;242.17;93.33;;;7.40;99.90;;;;;;5015817;28;20661;-90
2021/04/01 02:45:12;;;;;;;170.60;75.97;;;7.40;99.90;;;;;;4982054;28;20196;-91
2021/04/01 02:47:38;;;;;;;175.03;74.77;;;7.40;99.90;;;;;;4997766;28;20196;-90
2021/04/01 02:50:06;;;;;;;193.07;81.00;;;7.40;99.90;;;;;;4998200;28;20185;-90
2021/04/01 02:52:32;;;;;;;214.27;87.13;;;7.40;99.90;;;;;;4997049;28;20182;-91
2021/04/01 02:54:57;;;;;;;190.60;82.80;;;7.40;99.90;;;;;;4981910;28;20182;-94
2021/04/01 02:57:23;;;;;;;206.10;81.83;;;7.40;99.90;;;;;;5016477;28;20205;-90
2021/04/01 02:59:49;;;;;;;195.17;82.50;;;7.40;99.90;;;;;;4997848;28;20650;-91
2021/04/01 03:02:16;;;;;;;194.03;80.17;;;7.30;99.90;;;;;;4998395;28;20597;-91
2021/04/01 03:04:42;;;;;;;181.80;74.43;;;7.30;99.90;;;;;;4981816;28;20205;-90
2021/04/01 03:07:08;;;;;;;174.33;70.40;;;7.30;99.90;;;;;;5015625;28;20675;-89
2021/04/01 03:09:35;;;;;;;174.50;77.20;;;7.30;99.90;;;;;;5015297;28;20634;-90
2021/04/01 03:12:01;;;;;;;138.93;60.93;;;7.20;99.90;;;;;;5015166;28;20233;-92
2021/04/01 03:14:27;;;;;;;175.20;64.37;;;7.20;99.90;;;;;;5015428;28;20206;-93
2021/04/01 03:16:53;;;;;;;143.00;66.03;;;7.20;99.90;;;;;;4981565;28;20673;-90
2021/04/01 03:19:19;;;;;;;127.43;62.37;;;7.20;99.90;;;;;;4981515;28;20189;-90
2021/04/01 03:21:45;;;;;;;117.27;59.20;;;7.20;99.90;;;;;;4996495;28;20636;-90
2021/04/01 03:24:12;;;;;;;141.40;60.00;;;7.10;99.90;;;;;;4982365;28;20259;-92
2021/04/01 03:26:39;;;;;;;120.03;58.87;;;7.10;99.90;;;;;;4996698;28;20185;-91
2021/04/01 03:29:05;;;;;;;113.33;58.17;;;7.10;99.90;;;;;;4996581;28;20173;-93
2021/04/01 03:31:31;;;;;;;111.73;54.27;;;7.10;99.90;;;;;;4996751;28;20178;-91
2021/04/01 03:33:57;;;;;;;108.37;56.50;;;7.10;99.90;;;;;;4997342;28;20537;-90
2021/04/01 03:36:23;;;;;;;101.57;51.80;;;7.10;99.90;;;;;;5014781;28;20205;-90
2021/04/01 03:38:50;;;;;;;102.03;52.43;;;7.10;99.90;;;;;;5014457;28;20189;-91
2021/04/01 03:41:16;;;;;;;319.97;194.23;;;7.10;99.90;;;;;;4981465;28;20185;-91
2021/04/01 03:43:41;;;;;;;94.97;49.93;;;7.10;99.90;;;;;;5014420;28;20685;-90
2021/04/01 03:46:08;;;;;;;98.70;52.13;;;7.10;99.90;;;;;;4997322;28;20697;-91
2021/04/01 03:48:34;;;;;;;95.90;48.83;;;7.10;99.90;;;;;;4981326;28;20196;-93
2021/04/01 03:51:00;;;;;;;93.73;49.07;;;7.10;99.90;;;;;;4997337;28;20654;-91
2021/04/01 03:53:26;;;;;;;85.87;47.23;;;7.10;99.90;;;;;;4997416;28;20236;-90
2021/04/01 03:55:52;;;;;;;82.13;46.37;;;7.10;99.90;;;;;;4980757;28;20178;-92
2021/04/01 04:11:31;;;;;;;90.43;46.33;;;7.00;99.90;;;;;;4995860;28;20282;-89
2021/04/01 04:14:15;;;;;;;86.50;44.33;;;7.00;99.90;;;;;;5012253;28;20204;-88
2021/04/01 04:16:41;;;;;;;82.47;44.90;;;7.00;99.90;;;;;;4982315;28;20239;-86
2021/04/01 04:19:08;;;;;;;108.73;53.30;;;7.00;99.90;;;;;;4962518;28;20204;-87
2021/04/01 04:21:33;;;;;;;94.90;47.27;;;7.00;99.90;;;;;;5012029;28;20677;-87
2021/04/01 04:24:01;;;;;;;96.87;52.23;;;7.00;99.90;;;;;;5011703;28;20247;-88
2021/04/01 04:26:26;;;;;;;86.37;47.47;;;7.00;99.90;;;;;;5012074;28;20182;-87
2021/04/01 04:28:52;;;;;;;90.33;47.97;;;7.00;99.90;;;;;;4994433;28;20189;-88
2021/04/01 04:31:18;;;;;;;98.90;50.63;;;7.00;99.90;;;;;;4962672;28;20197;-89
2021/04/01 04:33:43;;;;;;;105.53;57.33;;;7.00;99.90;;;;;;4995073;28;20196;-88
2021/04/01 04:36:09;;;;;;;115.27;60.50;;;7.00;99.90;;;;;;5011971;28;20741;-89
2021/04/01 04:38:35;;;;;;;103.57;54.03;;;7.00;99.90;;;;;;4994339;28;20230;-88
2021/04/01 04:41:01;;;;;;;105.77;54.60;;;7.10;99.90;;;;;;5011885;28;20641;-89
2021/04/01 04:43:29;;;;;;;100.87;51.07;;;7.20;99.90;;;;;;4978246;28;20197;-89
2021/04/01 04:45:56;;;;;;;95.07;50.57;;;7.20;99.90;;;;;;5011896;28;20294;-88
2021/04/01 04:48:22;;;;;;;97.50;51.27;;;7.30;99.90;;;;;;5011783;28;20193;-89
2021/04/01 04:50:48;;;;;;;96.33;52.83;;;7.40;99.90;;;;;;4994032;28;20220;-89
2021/04/01 04:53:15;;;;;;;97.20;52.00;;;7.50;99.90;;;;;;4975068;28;20190;-87
2021/04/01 04:55:55;;;;;;;103.37;53.23;;;7.50;99.90;;;;;;5010718;28;20185;-87
2021/04/01 04:58:26;;;;;;;92.53;49.70;;;7.50;99.90;;;;;;5009928;28;20200;-87
2021/04/01 05:01:03;;;;;;;85.10;46.93;;;7.60;99.90;;;;;;4976347;28;20192;-88
2021/04/01 05:06:27;;;;;;;101.23;47.93;;;7.80;99.90;;;;;;5010919;28;20200;-89
2021/04/01 05:08:53;;;;;;;97.77;47.97;;;7.90;99.90;;;;;;4972342;28;20182;-87
2021/04/01 05:11:19;;;;;;;93.77;48.40;;;8.10;99.90;;;;;;4990918;28;20710;-87
2021/04/01 05:13:45;;;;;;;93.60;48.07;;;8.20;99.90;;;;;;4977350;28;20231;-87
2021/04/01 05:16:11;;;;;;;86.83;46.93;;;8.30;99.90;;;;;;5004113;28;20192;-87
2021/04/01 05:18:37;;;;;;;87.17;48.07;;;8.40;99.90;;;;;;5010867;28;20193;-88
2021/04/01 05:21:04;;;;;;;84.77;47.23;;;8.50;99.90;;;;;;4994736;28;20189;-88
2021/04/01 05:23:44;;;;;;;84.87;47.17;;;8.60;99.90;;;;;;4996036;28;20665;-87
2021/04/01 05:26:43;;;;;;;82.67;44.73;;;8.70;99.90;;;;;;4983010;28;20461;-86
2021/04/01 05:29:16;;;;;;;93.57;46.60;;;8.80;99.90;;;;;;5012800;28;20228;-86
2021/04/01 05:31:42;;;;;;;86.17;47.47;;;8.90;99.90;;;;;;4995592;28;20521;-87
2021/04/01 05:34:08;;;;;;;82.67;46.97;;;9.00;99.90;;;;;;5012662;28;20184;-87
2021/04/01 05:36:42;;;;;;;92.87;47.27;;;9.00;99.90;;;;;;4986676;28;20227;-87
2021/04/01 05:39:17;;;;;;;83.70;45.20;;;9.20;99.90;;;;;;4979856;28;20189;-87
2021/04/01 05:41:47;;;;;;;80.20;46.20;;;9.30;99.90;;;;;;4995150;28;20591;-88
2021/04/01 05:47:06;;;;;;;83.20;46.77;;;9.50;99.90;;;;;;4997480;28;20619;-88
2021/04/01 06:04:12;;;;;;;99.50;48.23;;;10.30;99.90;;;;;;4993533;28;20218;-88
2021/04/01 06:09:20;;;;;;;64.97;34.80;;;10.70;99.90;;;;;;4993039;28;20178;-88
2021/04/01 06:11:50;;;;;;;53.20;33.13;;;10.90;99.90;;;;;;4993080;28;20272;-88
2021/04/01 06:14:20;;;;;;;59.90;34.30;;;11.10;99.90;;;;;;4975579;28;20190;-88
2021/04/01 06:16:46;;;;;;;59.20;32.80;;;11.20;99.90;;;;;;4976473;28;20670;-88
2021/04/01 06:19:17;;;;;;;52.17;30.93;;;11.40;99.90;;;;;;4980287;28;20189;-87
2021/04/01 06:21:46;;;;;;;51.77;30.77;;;11.50;99.90;;;;;;5009421;28;20173;-86
2021/04/01 06:24:31;;;;;;;56.73;31.37;;;11.60;99.90;;;;;;4994378;28;20242;-88
2021/04/01 06:27:05;;;;;;;56.17;30.27;;;11.80;99.90;;;;;;4997222;28;20223;-85
2021/04/01 06:29:34;;;;;;;49.63;30.77;;;11.90;99.90;;;;;;5013844;28;20292;-86
2021/04/01 06:32:03;;;;;;;48.03;29.20;;;12.10;99.90;;;;;;5015679;28;20185;-87
2021/04/01 06:34:43;;;;;;;51.80;30.93;;;12.10;99.90;;;;;;4998707;28;20186;-87
2021/04/01 06:40:07;;;;;;;50.88;30.73;;;12.40;99.90;;;;;;4997341;28;20189;-88
2021/04/01 06:42:36;;;;;;;48.03;28.50;;;12.40;99.90;;;;;;5013817;28;20548;-89
2021/04/01 06:45:08;;;;;;;52.83;29.20;;;12.50;99.90;;;;;;4997460;28;20211;-89
2021/04/01 06:47:34;;;;;;;52.43;28.20;;;12.50;99.90;;;;;;5016235;28;20192;-90
2021/04/01 06:50:06;;;;;;;48.40;28.58;;;12.60;99.90;;;;;;4963278;28;20178;-89
2021/04/01 06:52:44;;;;;;;47.50;27.35;;;12.60;99.90;;;;;;4995709;28;20185;-89
2021/04/01 06:55:25;;;;;;;48.57;28.70;;;12.70;99.90;;;;;;4978046;28;20182;-89
2021/04/01 07:04:03;;;;;;;45.95;28.17;;;13.00;99.90;;;;;;4992381;28;20656;-89
2021/04/01 07:06:33;;;;;;;48.93;28.53;;;13.00;99.90;;;;;;4999676;28;20189;-87
2021/04/01 07:09:12;;;;;;;55.47;28.77;;;13.00;99.90;;;;;;4976293;28;20201;-88
2021/04/01 07:11:42;;;;;;;56.03;29.23;;;13.10;99.90;;;;;;4975313;28;20367;-89
2021/04/01 07:14:13;;;;;;;48.53;27.92;;;13.20;99.90;;;;;;4966895;28;20182;-89
2021/04/01 07:31:46;;;;;;;49.97;28.52;;;13.60;99.90;;;;;;5015283;28;20196;-90
2021/04/01 07:47:38;;;;;;;34.70;19.45;;;14.10;99.90;;;;;;5014917;28;20231;-90
2021/04/01 07:50:26;;;;;;;61.05;54.47;;;14.30;99.90;;;;;;4997043;28;20201;-89
2021/04/01 07:52:57;;;;;;;44.47;27.80;;;14.40;99.90;;;;;;5013660;28;20641;-90
2021/04/01 08:06:16;;;;;;;44.55;27.73;;;15.10;99.90;;;;;;5013931;28;20669;-92
2021/04/01 08:08:47;;;;;;;42.75;26.83;;;15.20;99.90;;;;;;4995920;28;20187;-92
2021/04/01 08:11:31;;;;;;;48.40;27.52;;;15.30;99.90;;;;;;4995535;28;20224;-91
2021/04/01 08:14:24;;;;;;;46.75;28.08;;;13.20;99.90;;;;;;4995888;28;20271;-91
2021/04/01 08:16:56;;;;;;;43.30;27.02;;;15.50;99.90;;;;;;4997072;28;20208;-91
2021/04/01 08:19:25;;;;;;;44.95;27.60;;;15.50;99.90;;;;;;5014248;28;20173;-92
2021/04/01 08:21:52;;;;;;;43.65;27.52;;;15.60;99.90;;;;;;4996699;28;20184;-91
2021/04/01 08:24:25;;;;;;;43.55;27.02;;;15.80;99.90;;;;;;4996524;28;20546;-91
2021/04/01 08:27:20;;;;;;;51.60;27.75;;;15.90;99.90;;;;;;4997236;28;20182;-91
2021/04/01 08:32:57;;;;;;;51.70;26.05;;;16.30;99.90;;;;;;5014129;28;20240;-91
2021/04/01 08:35:25;;;;;;;49.55;28.15;;;16.50;99.90;;;;;;5014203;28;20166;-91
2021/04/01 08:40:26;;;;;;;47.67;29.55;;;16.60;99.90;;;;;;5014425;28;20177;-91
2021/04/01 08:43:14;;;;;;;70.82;44.90;;;16.50;99.90;;;;;;4980136;28;20184;-91
2021/04/01 08:45:55;;;;;;;44.47;27.40;;;16.60;99.90;;;;;;4997051;28;20177;-88
2021/04/01 08:48:42;;;;;;;45.95;27.08;;;16.80;99.90;;;;;;5015277;28;20177;-90
2021/04/01 08:51:07;;;;;;;47.65;27.77;;;16.90;99.90;;;;;;4995523;28;20192;-90
2021/04/01 08:54:04;;;;;;;46.45;28.10;;;17.10;99.90;;;;;;4994793;28;20605;-90
2021/04/01 08:56:36;;;;;;;47.75;28.08;;;17.10;99.90;;;;;;5012157;28;20256;-89
2021/04/01 08:59:32;;;;;;;40.70;26.98;;;17.30;99.90;;;;;;5012955;28;20181;-88
2021/04/01 09:02:00;;;;;;;48.80;28.73;;;17.30;99.90;;;;;;4996035;28;20181;-90
2021/04/01 09:04:29;;;;;;;46.75;27.83;;;17.30;99.90;;;;;;4995974;28;20181;-90
2021/04/01 09:07:14;;;;;;;45.40;27.38;;;17.40;99.90;;;;;;5014371;28;20269;-89
2021/04/01 09:09:41;;;;;;;43.15;27.00;;;17.60;99.90;;;;;;5007177;28;20201;-89
2021/04/01 09:12:26;;;;;;;39.65;26.73;;;17.80;99.90;;;;;;4995985;28;20239;-90
2021/04/01 09:15:05;;;;;;;49.67;26.73;;;18.10;99.90;;;;;;4996042;28;20184;-90
2021/04/01 09:17:36;;;;;;;47.78;24.58;;;18.30;99.90;;;;;;4995745;28;20296;-90
2021/04/01 09:20:19;;;;;;;48.88;27.08;;;18.50;99.90;;;;;;4995567;28;20215;-89
2021/04/01 09:22:56;;;;;;;42.28;25.30;;;18.60;99.90;;;;;;4995662;28;20630;-90
2021/04/01 09:25:34;;;;;;;38.25;25.13;;;18.70;99.90;;;;;;4996146;28;20621;-91
2021/04/01 09:28:03;;;;;;;42.33;22.73;;;18.70;99.90;;;;;;5013756;28;20173;-90
2021/04/01 09:30:30;;;;;;;39.88;25.05;;;18.60;99.90;;;;;;4996135;28;20185;-91
2021/04/01 09:33:08;;;;;;;39.88;25.15;;;18.50;99.90;;;;;;4995974;28;20233;-90
2021/04/01 09:35:35;;;;;;;44.95;24.27;;;18.20;99.90;;;;;;4996069;28;20622;-91
2021/04/01 09:38:08;;;;;;;41.47;24.05;;;18.40;99.90;;;;;;4995904;28;20259;-91
2021/04/01 09:40:39;;;;;;;42.55;25.65;;;18.50;99.90;;;;;;4996198;28;20607;-89
2021/04/01 09:43:19;;;;;;;356.05;83.43;;;18.40;99.90;;;;;;4996188;28;20176;-90
2021/04/01 09:45:46;;;;;;;81.88;21.88;;;18.60;99.90;;;;;;5013810;28;20169;-89
2021/04/01 09:48:13;;;;;;;38.47;23.27;;;18.50;99.90;;;;;;4995699;28;20669;-90
2021/04/01 09:50:43;;;;;;;43.47;26.58;;;18.70;99.90;;;;;;4995228;28;20677;-90
2021/04/01 09:53:21;;;;;;;40.65;26.30;;;18.70;99.90;;;;;;4995516;28;20327;-90
2021/04/01 09:55:49;;;;;;;45.50;26.13;;;17.10;99.90;;;;;;4995961;28;20181;-90
2021/04/01 09:58:38;;;;;;;45.42;26.52;;;18.90;99.90;;;;;;4995413;28;20201;-91
2021/04/01 10:04:07;;;;;;;48.67;25.17;;;17.50;99.90;;;;;;5016665;28;20196;-91
2021/04/01 10:06:47;;;;;;;45.03;24.63;;;19.10;99.90;;;;;;4999495;28;20235;-93
2021/04/01 10:09:13;;;;;;;43.25;23.90;;;19.40;99.90;;;;;;4999605;28;20192;-90
2021/04/01 10:11:52;;;;;;;39.72;24.63;;;19.50;99.90;;;;;;4999283;28;20233;-93
2021/04/01 10:14:22;;;;;;;43.10;25.88;;;19.40;99.90;;;;;;4999756;28;20173;-90
2021/04/01 10:17:12;;;;;;;39.80;26.38;;;19.60;99.90;;;;;;4967869;28;20217;-92
2021/04/01 10:19:45;;;;;;;44.17;24.83;;;19.80;99.90;;;;;;5016802;28;20178;-91
2021/04/01 10:22:35;;;;;;;40.13;23.13;;;20.10;99.90;;;;;;4999396;28;20173;-91
2021/04/01 10:25:26;;;;;;;44.47;23.80;;;20.10;99.90;;;;;;4997942;28;20181;-94
2021/04/01 10:28:12;;;;;;;36.67;23.15;;;19.90;99.90;;;;;;4984758;28;20228;-90
2021/04/01 10:30:39;;;;;;;43.08;21.70;;;19.80;99.90;;;;;;4980697;28;20213;-91
2021/04/01 10:33:34;;;;;;;40.60;22.10;;;19.80;99.90;;;;;;4997240;28;20196;-92
2021/04/01 10:36:06;;;;;;;32.90;20.25;;;19.60;99.30;;;;;;4954942;28;20647;-94
2021/04/01 10:38:37;;;;;;;36.65;20.70;;;19.50;98.50;;;;;;4980078;28;20205;-92
2021/04/01 10:41:16;;;;;;;35.35;20.17;;;19.60;99.80;;;;;;5000208;28;20174;-94
2021/04/01 10:43:44;;;;;;;37.22;20.30;;;19.60;97.90;;;;;;4999543;28;20543;-91
2021/04/01 10:46:17;;;;;;;29.58;16.90;;;19.60;98.30;;;;;;5001984;28;20169;-92
2021/04/01 10:48:50;;;;;;;36.10;17.40;;;19.60;96.20;;;;;;4996525;28;20189;-93
2021/04/01 10:51:17;;;;;;;33.38;20.30;;;19.70;93.80;;;;;;5016241;28;20185;-91
2021/04/01 10:53:44;;;;;;;34.13;19.15;;;19.70;94.40;;;;;;5016368;28;20182;-94
2021/04/01 10:56:13;;;;;;;35.90;19.67;;;19.90;92.80;;;;;;4963449;28;20278;-94
2021/04/01 10:58:55;;;;;;;37.85;19.33;;;20.00;94.10;;;;;;4980697;28;20568;-91
2021/04/01 11:01:23;;;;;;;34.95;21.65;;;20.10;93.60;;;;;;4983504;28;20544;-93
2021/04/01 11:03:54;;;;;;;32.88;20.70;;;20.10;93.50;;;;;;4962464;28;20186;-91
2021/04/01 11:06:20;;;;;;;36.22;21.33;;;20.10;93.30;;;;;;4978903;28;20170;-91
2021/04/01 11:08:48;;;;;;;33.95;20.73;;;20.20;93.00;;;;;;4994321;28;20174;-91
2021/04/01 11:11:15;;;;;;;35.08;20.17;;;20.10;92.90;;;;;;4974776;28;20234;-92
2021/04/01 11:13:45;;;;;;;27.98;17.02;;;20.20;92.80;;;;;;4960165;28;20625;-90
2021/04/01 11:16:12;;;;;;;30.25;19.10;;;20.50;86.90;;;;;;4994758;28;20661;-89
2021/04/01 11:18:47;;;;;;;31.27;17.95;;;20.70;85.30;;;;;;4976236;28;20221;-91
2021/04/01 11:21:15;;;;;;;31.27;19.00;;;20.70;85.20;;;;;;4996790;28;20244;-93
2021/04/01 11:23:41;;;;;;;33.00;17.90;;;20.70;84.10;;;;;;4980848;28;20201;-92
2021/04/01 11:26:07;;;;;;;34.90;18.80;;;20.80;81.70;;;;;;4996646;28;20525;-94
2021/04/01 11:28:34;;;;;;;40.65;19.38;;;20.90;81.10;;;;;;4964659;28;20198;-95
2021/04/01 11:31:00;;;;;;;28.27;16.20;;;20.70;79.60;;;;;;4981833;28;20524;-94
2021/04/01 11:33:27;;;;;;;30.92;17.55;;;20.70;73.60;;;;;;4962928;28;20186;-94
2021/04/01 11:36:06;;;;;;;27.20;16.92;;;20.80;76.10;;;;;;4962992;28;20208;-91
2021/04/01 11:38:46;;;;;;;153.85;26.70;;;20.90;76.70;;;;;;4984721;28;20205;-89
2021/04/01 11:41:17;;;;;;;35.92;19.60;;;21.20;79.20;;;;;;5016030;28;20181;-90
2021/04/01 11:43:43;;;;;;;35.50;18.23;;;21.50;77.00;;;;;;4997961;28;20209;-93
2021/04/01 11:46:16;;;;;;;214.30;35.92;;;21.70;71.90;;;;;;5006114;28;20166;-93
2021/04/01 11:48:43;;;;;;;1999.90;999.90;;;21.50;71.90;;;;;;5009463;23;20230;-94
2021/04/01 11:51:31;;;;;;;35.25;19.80;;;21.50;75.80;;;;;;4992411;28;20208;-94
2021/04/01 11:53:58;;;;;;;34.00;21.23;;;21.50;73.00;;;;;;4976974;28;20642;-94
2021/04/01 11:56:37;;;;;;;35.15;21.50;;;21.20;74.90;;;;;;4997805;28;20177;-92
2021/04/01 11:59:15;;;;;;;36.08;21.85;;;21.20;76.70;;;;;;4981918;28;20189;-95
2021/04/01 12:01:57;;;;;;;35.13;17.55;;;21.30;76.20;;;;;;4977530;28;20526;-95
2021/04/01 12:04:26;;;;;;;32.25;18.85;;;21.40;68.30;;;;;;4966348;28;20193;-91
2021/04/01 12:06:52;;;;;;;36.20;17.42;;;21.60;70.00;;;;;;4966377;28;20200;-92
2021/04/01 12:09:18;;;;;;;33.42;14.27;;;21.70;67.40;;;;;;4973670;28;20193;-92
2021/04/01 12:11:45;;;;;;;32.05;13.65;;;21.70;59.60;;;;;;4946997;28;20186;-91
2021/04/01 12:14:13;;;;;;;28.52;11.80;;;21.90;59.30;;;;;;4992520;28;20213;-91
2021/04/01 12:16:39;;;;;;;31.02;14.57;;;22.20;54.70;;;;;;4978048;28;20232;-93
2021/04/01 12:19:05;;;;;;;24.05;11.25;;;22.20;51.20;;;;;;4996819;28;20209;-90
2021/04/01 12:21:32;;;;;;;26.27;11.85;;;22.20;49.80;;;;;;4976996;28;20530;-92
2021/04/01 12:24:02;;;;;;;24.55;11.60;;;22.40;50.60;;;;;;4960238;28;20189;-90
2021/04/01 12:26:30;;;;;;;26.70;12.23;;;22.50;49.60;;;;;;4994589;28;20224;-95
2021/04/01 12:28:57;;;;;;;29.40;13.93;;;22.60;50.10;;;;;;4994119;28;20277;-92
2021/04/01 12:31:31;;;;;;;17.98;11.48;;;22.50;51.10;;;;;;4961230;28;20174;-94
2021/04/01 12:33:57;;;;;;;26.02;11.95;;;22.40;49.80;;;;;;4993942;28;20186;-93
2021/04/01 12:36:35;;;;;;;28.33;11.98;;;22.50;50.80;;;;;;4976411;28;20303;-92
2021/04/01 12:39:02;;;;;;;30.40;13.70;;;22.70;51.10;;;;;;4992571;28;20197;-91
2021/04/01 12:41:34;;;;;;;28.40;13.07;;;22.70;51.00;;;;;;4977182;28;20662;-96
2021/04/01 12:44:00;;;;;;;32.90;14.52;;;22.60;51.30;;;;;;4991880;28;20178;-92
2021/04/01 12:46:39;;;;;;;27.92;12.23;;;22.70;49.10;;;;;;4955336;28;20713;-92
2021/04/01 12:49:05;;;;;;;98.82;71.97;;;23.00;48.90;;;;;;4958987;28;20320;-93
2021/04/01 12:51:45;;;;;;;26.67;13.20;;;23.20;48.10;;;;;;4995707;28;20192;-93
2021/04/01 12:54:21;;;;;;;28.08;12.05;;;23.40;47.70;;;;;;4994383;28;20174;-92
2021/04/01 12:56:52;;;;;;;25.73;12.73;;;23.40;48.10;;;;;;4961955;28;20201;-93
2021/04/01 12:59:23;;;;;;;28.27;12.68;;;23.10;48.60;;;;;;4994802;28;20639;-93
2021/04/01 13:01:54;;;;;;;28.27;14.52;;;22.90;48.40;;;;;;4994356;28;20312;-92
2021/04/01 13:04:22;;;;;;;24.33;13.07;;;22.90;48.50;;;;;;4960875;28;20252;-93
2021/04/01 13:09:53;;;;;;;225.93;78.35;;;22.90;49.30;;;;;;4994184;28;20220;-91
2021/04/01 13:12:23;;;;;;;23.38;13.07;;;23.20;48.20;;;;;;4963613;28;20557;-92
2021/04/01 13:14:49;;;;;;;23.35;13.13;;;23.20;48.70;;;;;;4975148;28;20178;-94
2021/04/01 13:17:16;;;;;;;27.13;13.55;;;23.50;48.60;;;;;;4976025;28;20213;-91
2021/04/01 13:19:42;;;;;;;24.40;12.70;;;23.20;48.90;;;;;;4956303;28;20194;-88
2021/04/01 13:27:01;;;;;;;28.45;14.05;;;23.10;48.80;;;;;;4972022;28;20186;-89
2021/04/01 13:29:31;;;;;;;24.85;13.52;;;22.90;49.20;;;;;;4986791;28;20229;-89
2021/04/01 13:32:06;;;;;;;30.83;14.15;;;22.80;49.50;;;;;;4990927;28;20235;-89
2021/04/01 13:34:44;;;;;;;28.02;14.38;;;22.70;50.00;;;;;;4993243;28;20735;-88
2021/04/01 13:40:10;;;;;;;22.77;12.15;;;22.60;50.30;;;;;;4986399;28;20437;-89
2021/04/01 13:42:38;;;;;;;29.25;13.30;;;22.50;49.10;;;;;;4999988;28;20265;-89
2021/04/01 13:45:11;;;;;;;29.77;13.18;;;22.50;48.50;;;;;;4997981;28;20369;-89
2021/04/01 13:47:43;;;;;;;26.70;11.50;;;22.30;48.30;;;;;;4979837;28;20770;-88
2021/04/01 13:50:13;;;;;;;23.10;11.30;;;22.50;47.50;;;;;;4964617;28;20181;-89
2021/04/01 13:53:07;;;;;;;24.52;11.32;;;22.50;45.90;;;;;;4980972;28;20580;-88
2021/04/01 13:55:31;;;;;;;24.02;11.30;;;22.70;46.40;;;;;;4996802;28;20228;-88
2021/04/01 14:08:58;;;;;;;25.60;12.98;;;22.60;45.10;;;;;;4984209;28;20191;-89
2021/04/01 14:11:25;;;;;;;26.48;11.50;;;22.60;45.30;;;;;;4983622;28;20173;-90
2021/04/01 14:13:51;;;;;;;26.52;12.90;;;22.30;45.00;;;;;;4999618;28;20179;-90
2021/04/01 14:16:18;;;;;;;26.45;12.68;;;22.10;44.80;;;;;;4966240;28;20178;-91
2021/04/01 14:18:46;;;;;;;23.08;12.18;;;22.10;45.00;;;;;;4982185;28;20268;-92
2021/04/01 14:21:13;;;;;;;25.10;11.00;;;22.10;44.70;;;;;;5000426;28;20212;-93
2021/04/01 14:23:40;;;;;;;23.27;10.38;;;22.10;45.40;;;;;;4981800;28;20657;-92
2021/04/01 14:26:15;;;;;;;18.85;9.43;;;22.10;45.50;;;;;;4997960;28;20719;-90
2021/04/01 14:28:42;;;;;;;23.40;10.05;;;21.90;45.60;;;;;;4979929;28;20199;-90
2021/04/01 14:31:09;;;;;;;22.13;10.10;;;21.70;45.40;;;;;;4996999;28;20180;-89
2021/04/01 14:33:38;;;;;;;19.35;9.10;;;21.70;45.80;;;;;;4997253;28;20178;-88
2021/04/01 14:36:05;;;;;;;15.65;8.30;;;21.60;44.40;;;;;;4997105;28;20174;-89
2021/04/01 14:38:34;;;;;;;21.20;9.10;;;21.80;44.50;;;;;;4980503;28;20224;-89